Time;durP1;ratioP1;P1;durP2;ratioP2;P2;SDS_P1;SDS_P2;PMS_P1;PMS_P2;Temp;Humidity;BMP_temperature;BMP_pressure;BME280_temperature;BME280_humidity;BME280_pressure;Samples;Min_cycle;Max_cycle;Signal;HPM_P1;HPM_P2
2021/10/18 00:01:25;;;;;;;39.83;28.50;;;;;;;;;;5035507;28;20030;-87
2021/10/18 00:03:51;;;;;;;75.18;40.22;;;;;;;;;;5017852;28;20025;-87
2021/10/18 00:06:16;;;;;;;57.00;35.25;;;;;;;;;;5035477;28;20416;-87
2021/10/18 00:08:41;;;;;;;78.68;39.97;;;;;;;;;;5035488;28;20048;-87
2021/10/18 00:11:07;;;;;;;57.42;33.33;;;;;;;;;;5035767;28;20067;-87
2021/10/18 00:13:32;;;;;;;47.58;32.03;;;;;;;;;;5035668;28;20385;-87
2021/10/18 00:15:57;;;;;;;51.60;31.42;;;;;;;;;;5017409;28;20033;-87
2021/10/18 00:18:23;;;;;;;71.65;37.75;;;;;;;;;;5035317;28;20024;-87
2021/10/18 00:20:48;;;;;;;54.28;33.72;;;;;;;;;;5017315;28;20025;-87
2021/10/18 00:23:14;;;;;;;46.53;31.60;;;;;;;;;;5017691;28;20025;-87
2021/10/18 00:25:39;;;;;;;93.68;43.63;;;;;;;;;;5035214;28;20484;-87
2021/10/18 00:28:05;;;;;;;84.57;43.75;;;;;;;;;;5017426;28;20059;-87
2021/10/18 00:30:30;;;;;;;48.65;34.03;;;;;;;;;;5035026;28;20021;-87
2021/10/18 00:32:55;;;;;;;76.38;42.28;;;;;;;;;;5035019;28;20405;-88
2021/10/18 00:35:21;;;;;;;57.65;36.45;;;;;;;;;;5017317;28;20022;-88
2021/10/18 00:37:46;;;;;;;96.80;46.10;;;;;;;;;;5035149;28;20017;-88
2021/10/18 00:40:12;;;;;;;93.00;44.97;;;;;;;;;;5017504;28;20017;-87
2021/10/18 00:42:37;;;;;;;85.78;42.85;;;;;;;;;;5017043;28;20314;-88
2021/10/18 00:45:03;;;;;;;74.25;40.35;;;;;;;;;;5017165;28;20380;-87
2021/10/18 00:47:28;;;;;;;73.25;40.58;;;;;;;;;;5034831;28;20520;-87
2021/10/18 00:49:54;;;;;;;54.22;35.42;;;;;;;;;;5016975;28;20021;-87
2021/10/18 00:52:19;;;;;;;66.15;36.47;;;;;;;;;;5034559;28;20400;-87
2021/10/18 00:54:46;;;;;;;87.53;43.20;;;;;;;;;;5034876;28;20530;-88
2021/10/18 00:57:11;;;;;;;75.18;41.55;;;;;;;;;;5033866;28;20029;-88
2021/10/18 00:59:37;;;;;;;64.47;37.85;;;;;;;;;;5034556;28;20021;-87
2021/10/18 01:02:02;;;;;;;65.07;36.42;;;;;;;;;;5034480;28;20040;-87
2021/10/18 01:04:27;;;;;;;86.15;44.28;;;;;;;;;;5016667;28;20083;-87
2021/10/18 01:06:54;;;;;;;62.00;37.13;;;;;;;;;;5034568;28;20093;-88
2021/10/18 01:09:19;;;;;;;62.33;37.53;;;;;;;;;;5017042;28;20022;-88
2021/10/18 01:11:44;;;;;;;64.00;35.10;;;;;;;;;;5017159;28;20393;-88
2021/10/18 01:14:09;;;;;;;70.93;39.38;;;;;;;;;;5034260;28;20284;-88
2021/10/18 01:16:34;;;;;;;56.63;35.03;;;;;;;;;;5034026;28;20022;-88
2021/10/18 01:19:13;;;;;;;53.73;33.80;;;;;;;;;;5016536;28;20354;-88
2021/10/18 01:21:39;;;;;;;65.97;37.15;;;;;;;;;;5034275;28;20740;-88
2021/10/18 01:24:04;;;;;;;69.05;39.22;;;;;;;;;;5034213;28;20032;-88
2021/10/18 01:26:29;;;;;;;57.95;35.40;;;;;;;;;;5016456;28;20017;-88
2021/10/18 01:28:54;;;;;;;62.77;36.90;;;;;;;;;;5016675;28;20018;-88
2021/10/18 01:31:19;;;;;;;66.07;37.33;;;;;;;;;;5034099;28;20272;-88
2021/10/18 01:33:45;;;;;;;67.57;37.50;;;;;;;;;;5016157;28;20267;-88
2021/10/18 01:36:11;;;;;;;84.03;41.80;;;;;;;;;;5033982;28;20017;-88
2021/10/18 01:38:36;;;;;;;70.35;40.25;;;;;;;;;;5016380;28;20021;-88
2021/10/18 01:41:01;;;;;;;84.97;42.10;;;;;;;;;;5016393;28;20048;-88
2021/10/18 01:43:26;;;;;;;64.60;36.28;;;;;;;;;;5016286;28;20026;-88
2021/10/18 01:45:51;;;;;;;67.45;37.00;;;;;;;;;;5033858;28;20022;-88
2021/10/18 01:48:17;;;;;;;57.60;33.80;;;;;;;;;;5016183;28;20021;-88
2021/10/18 01:50:42;;;;;;;88.50;42.72;;;;;;;;;;5033525;28;20377;-88
2021/10/18 01:53:07;;;;;;;88.73;43.50;;;;;;;;;;5016303;28;20397;-88
2021/10/18 01:55:33;;;;;;;69.30;36.07;;;;;;;;;;5033586;28;20295;-88
2021/10/18 01:57:58;;;;;;;54.63;33.25;;;;;;;;;;5016072;28;20029;-88
2021/10/18 02:00:23;;;;;;;55.67;35.20;;;;;;;;;;5016048;28;20457;-88
2021/10/18 02:02:49;;;;;;;90.90;41.38;;;;;;;;;;5015871;28;20850;-88
2021/10/18 02:05:15;;;;;;;57.03;34.45;;;;;;;;;;5016094;28;20373;-88
2021/10/18 02:07:42;;;;;;;42.60;29.75;;;;;;;;;;5034044;28;20017;-88
2021/10/18 02:10:07;;;;;;;73.55;38.83;;;;;;;;;;5020072;28;20115;-88
2021/10/18 02:12:32;;;;;;;81.60;40.58;;;;;;;;;;5020037;28;20021;-88
2021/10/18 02:14:57;;;;;;;79.13;38.10;;;;;;;;;;5019996;28;20040;-88
2021/10/18 02:17:23;;;;;;;82.03;41.00;;;;;;;;;;5019855;28;20322;-88
2021/10/18 02:19:48;;;;;;;60.53;33.63;;;;;;;;;;5037666;28;20268;-88
2021/10/18 02:22:13;;;;;;;47.47;31.17;;;;;;;;;;5020048;28;20493;-88
2021/10/18 02:24:38;;;;;;;67.15;35.10;;;;;;;;;;5037477;28;20339;-88
2021/10/18 02:27:04;;;;;;;53.70;30.77;;;;;;;;;;5037775;28;20389;-88
2021/10/18 02:29:29;;;;;;;66.18;36.60;;;;;;;;;;5037488;28;20305;-88
2021/10/18 02:31:54;;;;;;;83.00;40.47;;;;;;;;;;5037534;28;20048;-88
2021/10/18 02:34:19;;;;;;;68.80;36.03;;;;;;;;;;5019427;28;20785;-88
2021/10/18 02:36:44;;;;;;;57.57;34.93;;;;;;;;;;5019499;28;20256;-88
2021/10/18 02:39:10;;;;;;;68.75;34.13;;;;;;;;;;5037398;28;20266;-88
2021/10/18 02:41:35;;;;;;;67.85;36.25;;;;;;;;;;5019910;28;20465;-88
2021/10/18 02:44:00;;;;;;;61.10;35.83;;;;;;;;;;5019498;28;20048;-88
2021/10/18 02:46:25;;;;;;;74.10;36.67;;;;;;;;;;5019446;28;20026;-88
2021/10/18 02:48:51;;;;;;;60.83;34.90;;;;;;;;;;5036980;28;20252;-88
2021/10/18 02:51:16;;;;;;;56.97;33.50;;;;;;;;;;5036900;28;20339;-88
2021/10/18 02:53:41;;;;;;;54.75;32.17;;;;;;;;;;5037000;28;20465;-88
2021/10/18 02:56:06;;;;;;;61.95;34.53;;;;;;;;;;5019022;28;20789;-88
2021/10/18 02:58:31;;;;;;;62.43;35.30;;;;;;;;;;5037087;28;20381;-88
2021/10/18 03:00:57;;;;;;;79.53;38.75;;;;;;;;;;5036704;28;20248;-88
2021/10/18 03:03:22;;;;;;;65.07;35.53;;;;;;;;;;5018855;28;20018;-88
2021/10/18 03:05:47;;;;;;;63.53;34.60;;;;;;;;;;5036653;28;20268;-88
2021/10/18 03:08:12;;;;;;;62.07;33.87;;;;;;;;;;5036864;28;21064;-88
2021/10/18 03:10:40;;;;;;;63.85;33.88;;;;;;;;;;5018848;28;20299;-88
2021/10/18 03:13:08;;;;;;;71.53;36.85;;;;;;;;;;5036614;28;20010;-88
2021/10/18 03:15:34;;;;;;;59.53;33.90;;;;;;;;;;5018791;28;20386;-88
2021/10/18 03:17:59;;;;;;;49.22;31.50;;;;;;;;;;5036331;28;20017;-88
2021/10/18 03:20:24;;;;;;;76.03;37.17;;;;;;;;;;5035532;28;20022;-88
2021/10/18 03:22:49;;;;;;;80.88;39.63;;;;;;;;;;5018740;28;20024;-88
2021/10/18 03:25:14;;;;;;;72.97;38.72;;;;;;;;;;5018544;28;20060;-88
2021/10/18 03:27:40;;;;;;;45.22;29.25;;;;;;;;;;5018705;28;20018;-88
2021/10/18 03:30:05;;;;;;;75.47;36.87;;;;;;;;;;5018678;28;20041;-88
2021/10/18 03:32:30;;;;;;;56.35;32.30;;;;;;;;;;5018660;28;20287;-88
2021/10/18 03:34:56;;;;;;;91.47;41.23;;;;;;;;;;5018371;28;20033;-88
2021/10/18 03:37:21;;;;;;;59.93;34.13;;;;;;;;;;5036271;28;20612;-87
2021/10/18 03:39:46;;;;;;;54.78;31.13;;;;;;;;;;5035787;28;20256;-88
2021/10/18 03:42:11;;;;;;;59.40;32.03;;;;;;;;;;5018382;28;20025;-89
2021/10/18 03:44:36;;;;;;;61.72;33.75;;;;;;;;;;5018294;28;20264;-88
2021/10/18 03:47:02;;;;;;;74.40;33.97;;;;;;;;;;5018287;28;20032;-88
2021/10/18 03:49:27;;;;;;;58.47;33.13;;;;;;;;;;5018045;28;20366;-88
2021/10/18 03:51:52;;;;;;;56.92;31.40;;;;;;;;;;5035980;28;20049;-88
2021/10/18 03:54:17;;;;;;;65.10;33.47;;;;;;;;;;5035952;28;20026;-88
2021/10/18 03:56:43;;;;;;;75.03;35.37;;;;;;;;;;5035764;28;20331;-88
2021/10/18 03:59:08;;;;;;;56.60;31.70;;;;;;;;;;5017841;28;20029;-87
2021/10/18 04:01:33;;;;;;;47.20;28.37;;;;;;;;;;5035752;28;20253;-87
2021/10/18 04:03:58;;;;;;;51.40;30.93;;;;;;;;;;5018119;28;20773;-87
2021/10/18 04:06:23;;;;;;;54.88;30.85;;;;;;;;;;5035505;28;20306;-87
2021/10/18 04:08:50;;;;;;;75.30;35.78;;;;;;;;;;5035604;28;20022;-88
2021/10/18 04:11:16;;;;;;;65.72;33.88;;;;;;;;;;5035639;28;20018;-88
2021/10/18 04:13:41;;;;;;;95.93;38.90;;;;;;;;;;5035406;28;20037;-88
2021/10/18 04:16:06;;;;;;;46.90;28.30;;;;;;;;;;5035452;28;20079;-87
2021/10/18 04:18:32;;;;;;;73.28;34.10;;;;;;;;;;5017577;28;20460;-87
2021/10/18 04:20:59;;;;;;;45.88;27.63;;;;;;;;;;5035307;28;20021;-87
2021/10/18 04:23:24;;;;;;;60.05;31.25;;;;;;;;;;5035200;28;20009;-88
2021/10/18 04:25:50;;;;;;;52.57;30.73;;;;;;;;;;5035224;28;20028;-88
2021/10/18 04:28:15;;;;;;;56.60;31.50;;;;;;;;;;5017948;28;20268;-88
2021/10/18 04:30:40;;;;;;;52.92;31.35;;;;;;;;;;5035124;28;20264;-88
2021/10/18 04:33:05;;;;;;;64.75;32.45;;;;;;;;;;5017418;28;20167;-87
2021/10/18 04:35:31;;;;;;;57.23;33.07;;;;;;;;;;5017143;28;20064;-88
2021/10/18 04:37:56;;;;;;;52.63;30.73;;;;;;;;;;5035037;28;20260;-88
2021/10/18 04:40:21;;;;;;;50.40;30.58;;;;;;;;;;5035006;28;20029;-88
2021/10/18 04:42:46;;;;;;;54.22;30.42;;;;;;;;;;5017267;28;20021;-88
2021/10/18 04:45:11;;;;;;;118.67;44.50;;;;;;;;;;5017200;28;20021;-88
2021/10/18 04:47:41;;;;;;;44.10;28.30;;;;;;;;;;5017142;28;20310;-87
2021/10/18 04:50:06;;;;;;;48.35;28.63;;;;;;;;;;5017127;28;20384;-88
2021/10/18 04:52:31;;;;;;;58.72;32.47;;;;;;;;;;5016934;28;20120;-88
2021/10/18 04:54:56;;;;;;;49.28;29.17;;;;;;;;;;5034573;28;20063;-88
2021/10/18 04:57:22;;;;;;;52.90;29.50;;;;;;;;;;5034802;28;20480;-88
2021/10/18 04:59:47;;;;;;;45.60;28.67;;;;;;;;;;5017014;28;20025;-88
2021/10/18 05:02:12;;;;;;;83.25;37.65;;;;;;;;;;5017083;28;20029;-88
2021/10/18 05:04:37;;;;;;;55.13;31.00;;;;;;;;;;5034507;28;20018;-88
2021/10/18 05:07:03;;;;;;;65.43;32.67;;;;;;;;;;5016839;28;20662;-88
2021/10/18 05:09:28;;;;;;;76.93;32.90;;;;;;;;;;5034441;28;20339;-88
2021/10/18 05:11:53;;;;;;;47.53;26.73;;;;;;;;;;5034501;28;20028;-88
2021/10/18 05:14:18;;;;;;;39.90;25.27;;;;;;;;;;5016664;28;20032;-88
2021/10/18 05:16:43;;;;;;;39.80;25.10;;;;;;;;;;5034511;28;20280;-88
2021/10/18 05:19:09;;;;;;;44.23;24.67;;;;;;;;;;5016791;28;20424;-88
2021/10/18 05:21:34;;;;;;;39.92;23.67;;;;;;;;;;5016591;28;20268;-88
2021/10/18 05:23:59;;;;;;;40.35;23.33;;;;;;;;;;5034330;28;20009;-88
2021/10/18 05:26:25;;;;;;;34.40;20.87;;;;;;;;;;5016500;28;20032;-88
2021/10/18 05:28:50;;;;;;;28.60;17.20;;;;;;;;;;5016385;28;20829;-88
2021/10/18 05:31:16;;;;;;;25.40;17.98;;;;;;;;;;5034136;28;20029;-88
2021/10/18 05:33:41;;;;;;;23.70;15.13;;;;;;;;;;5034150;28;20025;-88
2021/10/18 05:36:06;;;;;;;23.23;15.43;;;;;;;;;;5016038;28;20346;-88
2021/10/18 05:38:31;;;;;;;19.27;14.67;;;;;;;;;;5033968;28;20017;-87
2021/10/18 05:40:56;;;;;;;22.00;13.63;;;;;;;;;;5033917;28;20256;-87
2021/10/18 05:43:22;;;;;;;19.33;12.40;;;;;;;;;;5015532;28;20260;-87
2021/10/18 05:45:47;;;;;;;16.55;12.18;;;;;;;;;;5015805;28;20268;-87
2021/10/18 05:48:12;;;;;;;12.48;10.18;;;;;;;;;;5016029;28;20384;-87
2021/10/18 05:50:40;;;;;;;12.57;10.68;;;;;;;;;;5033268;28;20045;-87
2021/10/18 05:53:06;;;;;;;17.35;13.43;;;;;;;;;;5033496;28;20017;-88
2021/10/18 05:55:31;;;;;;;18.83;12.50;;;;;;;;;;5015527;28;20056;-88
2021/10/18 05:57:57;;;;;;;17.77;14.15;;;;;;;;;;5033380;28;20260;-88
2021/10/18 06:00:23;;;;;;;23.27;16.15;;;;;;;;;;5015961;28;20110;-88
2021/10/18 06:02:49;;;;;;;22.83;17.20;;;;;;;;;;5016073;28;20022;-88
2021/10/18 06:05:14;;;;;;;28.48;18.75;;;;;;;;;;5034108;28;20105;-87
2021/10/18 06:07:39;;;;;;;31.60;20.30;;;;;;;;;;5033447;28;20024;-87
2021/10/18 06:10:06;;;;;;;34.35;21.08;;;;;;;;;;5015908;28;20024;-87
2021/10/18 06:12:31;;;;;;;43.55;23.67;;;;;;;;;;5033760;28;20032;-87
2021/10/18 06:14:56;;;;;;;45.10;24.60;;;;;;;;;;5015549;28;20033;-87
2021/10/18 06:17:21;;;;;;;49.17;26.00;;;;;;;;;;5033478;28;20108;-87
2021/10/18 06:19:47;;;;;;;47.50;27.05;;;;;;;;;;5015793;28;20263;-87
2021/10/18 06:22:12;;;;;;;48.70;28.37;;;;;;;;;;5033371;28;20060;-87
2021/10/18 06:24:37;;;;;;;47.00;26.73;;;;;;;;;;5033392;28;20336;-87
2021/10/18 06:27:02;;;;;;;48.13;26.77;;;;;;;;;;5033659;28;20636;-87
2021/10/18 06:29:29;;;;;;;45.42;26.45;;;;;;;;;;5033409;28;20264;-87
2021/10/18 06:31:54;;;;;;;42.05;24.42;;;;;;;;;;5015964;28;20040;-88
2021/10/18 06:34:19;;;;;;;44.83;24.73;;;;;;;;;;5033383;28;20025;-88
2021/10/18 06:36:44;;;;;;;50.03;26.77;;;;;;;;;;5015759;28;20155;-88
2021/10/18 06:39:10;;;;;;;47.53;25.57;;;;;;;;;;5015818;28;20590;-87
2021/10/18 06:41:35;;;;;;;39.90;24.37;;;;;;;;;;5015440;28;20271;-87
2021/10/18 06:44:00;;;;;;;41.03;24.77;;;;;;;;;;5033467;28;20252;-87
2021/10/18 06:46:25;;;;;;;48.63;28.00;;;;;;;;;;5042863;28;20275;-88
2021/10/18 06:48:51;;;;;;;37.92;24.58;;;;;;;;;;5051626;28;20301;-88
2021/10/18 06:51:16;;;;;;;44.17;26.83;;;;;;;;;;5024933;28;20060;-88
2021/10/18 06:53:41;;;;;;;44.43;27.47;;;;;;;;;;5032933;28;20420;-88
2021/10/18 06:56:06;;;;;;;46.30;27.47;;;;;;;;;;5034975;28;20314;-88
2021/10/18 06:58:32;;;;;;;47.88;26.75;;;;;;;;;;5016742;28;20256;-88
2021/10/18 07:00:57;;;;;;;69.20;32.70;;;;;;;;;;5015072;28;20072;-88
2021/10/18 07:03:23;;;;;;;97.05;38.95;;;;;;;;;;4999010;28;20021;-88
2021/10/18 07:05:48;;;;;;;75.20;35.30;;;;;;;;;;4998617;28;20367;-88
2021/10/18 07:08:13;;;;;;;75.25;35.70;;;;;;;;;;5015003;28;20017;-88
2021/10/18 07:10:39;;;;;;;79.28;36.60;;;;;;;;;;4996622;28;20112;-88
2021/10/18 07:13:09;;;;;;;94.18;40.28;;;;;;;;;;4998600;28;20037;-88
2021/10/18 07:15:34;;;;;;;92.20;40.78;;;;;;;;;;5007771;28;20022;-88
2021/10/18 07:17:59;;;;;;;80.40;37.63;;;;;;;;;;5014948;28;20764;-88
2021/10/18 07:20:24;;;;;;;138.57;51.97;;;;;;;;;;5014704;28;20469;-88
2021/10/18 07:22:52;;;;;;;91.90;41.38;;;;;;;;;;5014113;28;20340;-88
2021/10/18 07:25:20;;;;;;;96.22;43.92;;;;;;;;;;5014517;28;20032;-88
2021/10/18 07:27:46;;;;;;;81.95;41.40;;;;;;;;;;5017880;28;20017;-88
2021/10/18 07:30:11;;;;;;;104.75;44.13;;;;;;;;;;5018374;28;20024;-88
2021/10/18 07:32:40;;;;;;;103.35;42.78;;;;;;;;;;5016835;28;20056;-88
2021/10/18 07:35:06;;;;;;;94.50;42.72;;;;;;;;;;5016684;28;20439;-88
2021/10/18 07:37:31;;;;;;;116.18;47.67;;;;;;;;;;5018439;28;20017;-88
2021/10/18 07:39:57;;;;;;;108.55;46.85;;;;;;;;;;5017890;28;20048;-88
2021/10/18 07:42:24;;;;;;;105.07;44.30;;;;;;;;;;5021229;28;20022;-87
2021/10/18 07:44:50;;;;;;;117.88;48.00;;;;;;;;;;5015745;28;20018;-87
2021/10/18 07:47:17;;;;;;;96.55;43.47;;;;;;;;;;5013678;28;20355;-88
2021/10/18 07:49:42;;;;;;;105.63;42.78;;;;;;;;;;5010765;28;20025;-87
2021/10/18 07:52:13;;;;;;;97.35;42.13;;;;;;;;;;5019763;28;20050;-87
2021/10/18 07:54:42;;;;;;;117.13;47.20;;;;;;;;;;5035022;28;20037;-88
2021/10/18 07:57:08;;;;;;;117.65;47.45;;;;;;;;;;5033738;28;20025;-88
2021/10/18 07:59:33;;;;;;;123.18;47.05;;;;;;;;;;5034256;28;20021;-88
2021/10/18 08:02:00;;;;;;;87.10;41.30;;;;;;;;;;5017754;28;20759;-88
2021/10/18 08:04:26;;;;;;;85.60;39.80;;;;;;;;;;5013891;28;20044;-88
2021/10/18 08:06:51;;;;;;;77.30;37.65;;;;;;;;;;5015464;28;20104;-88
2021/10/18 08:09:20;;;;;;;67.28;33.90;;;;;;;;;;5013683;28;20048;-87
2021/10/18 08:11:45;;;;;;;62.78;33.03;;;;;;;;;;5012285;28;20017;-88
2021/10/18 08:14:10;;;;;;;69.80;33.30;;;;;;;;;;5014388;28;20025;-88
2021/10/18 08:16:39;;;;;;;55.10;30.75;;;;;;;;;;5017411;28;20286;-88
2021/10/18 08:19:04;;;;;;;54.40;30.35;;;;;;;;;;5016945;28;20024;-88
2021/10/18 08:21:30;;;;;;;54.70;28.63;;;;;;;;;;5016671;28;20112;-88
2021/10/18 08:26:25;;;;;;;62.35;36.17;;;;;;;;;;5064026;23;20424;-88
2021/10/18 08:28:50;;;;;;;90.43;38.30;;;;;;;;;;5014997;28;20092;-88
2021/10/18 08:31:16;;;;;;;57.50;31.83;;;;;;;;;;5012345;28;20025;-88
2021/10/18 08:33:44;;;;;;;36.33;22.85;;;;;;;;;;5013315;28;20458;-88
2021/10/18 08:36:10;;;;;;;49.30;29.48;;;;;;;;;;5010252;28;20466;-88
2021/10/18 08:38:47;;;;;;;33.60;22.05;;;;;;;;;;5013081;28;20018;-88
2021/10/18 08:46:07;;;;;;;40.25;23.42;;;;;;;;;;5012554;28;20018;-88
2021/10/18 08:48:33;;;;;;;26.80;19.63;;;;;;;;;;5013736;28;20462;-88
2021/10/18 08:50:59;;;;;;;29.80;20.38;;;;;;;;;;5014206;28;20042;-88
2021/10/18 08:53:24;;;;;;;29.30;19.15;;;;;;;;;;4996055;28;20385;-88
2021/10/18 08:55:50;;;;;;;35.95;22.52;;;;;;;;;;5014453;28;20034;-88
2021/10/18 08:58:17;;;;;;;42.90;25.88;;;;;;;;;;4999444;28;20056;-88
2021/10/18 09:00:51;;;;;;;28.80;21.10;;;;;;;;;;4994128;28;20018;-88
2021/10/18 09:03:32;;;;;;;43.17;26.83;;;;;;;;;;5006832;28;20024;-88
2021/10/18 09:06:16;;;;;;;26.63;19.10;;;;;;;;;;5032838;28;20025;-88
2021/10/18 09:08:48;;;;;;;23.40;18.38;;;;;;;;;;5012604;28;20040;-88
2021/10/18 09:11:18;;;;;;;23.13;16.67;;;;;;;;;;5027836;23;20086;-88
2021/10/18 09:13:50;;;;;;;28.67;18.38;;;;;;;;;;5016536;28;20033;-88
2021/10/18 09:16:26;;;;;;;34.67;20.83;;;;;;;;;;5000974;28;20033;-88
2021/10/18 09:19:03;;;;;;;26.40;18.38;;;;;;;;;;5012659;28;20083;-88
2021/10/18 09:21:29;;;;;;;43.92;29.13;;;;;;;;;;4994128;28;20370;-88
2021/10/18 09:24:02;;;;;;;27.52;20.08;;;;;;;;;;4995784;28;20049;-88
2021/10/18 09:26:31;;;;;;;34.83;22.73;;;;;;;;;;4995652;28;20037;-87
2021/10/18 09:29:01;;;;;;;43.55;26.45;;;;;;;;;;4996689;28;20033;-87
2021/10/18 09:31:28;;;;;;;34.22;23.02;;;;;;;;;;4996413;28;20022;-87
2021/10/18 09:34:02;;;;;;;37.80;24.27;;;;;;;;;;4994435;28;20075;-88
2021/10/18 09:36:28;;;;;;;35.38;24.02;;;;;;;;;;4996318;28;20034;-88
2021/10/18 09:39:09;;;;;;;25.75;19.77;;;;;;;;;;4995841;28;20092;-88
2021/10/18 09:41:34;;;;;;;36.80;24.87;;;;;;;;;;4996349;28;20018;-88
2021/10/18 09:44:11;;;;;;;25.02;18.85;;;;;;;;;;4996297;28;20713;-88
2021/10/18 09:46:46;;;;;;;31.27;21.40;;;;;;;;;;4994639;28;20018;-87
2021/10/18 10:53:21;;;;;;;69.85;39.50;;;;;;;;;;5037058;28;20024;-88
2021/10/18 10:55:47;;;;;;;60.20;32.97;;;;;;;;;;5018845;28;20030;-87
2021/10/18 10:58:32;;;;;;;61.33;34.33;;;;;;;;;;5038554;28;20075;-88
2021/10/18 11:01:00;;;;;;;67.07;33.83;;;;;;;;;;5010245;28;20030;-88
2021/10/18 11:03:36;;;;;;;55.63;30.27;;;;;;;;;;4998698;28;20046;-88
2021/10/18 11:06:04;;;;;;;53.67;30.70;;;;;;;;;;4998141;28;20029;-88
2021/10/18 11:08:31;;;;;;;55.58;29.98;;;;;;;;;;4993837;28;20787;-88
2021/10/18 11:11:06;;;;;;;53.70;31.73;;;;;;;;;;5015404;28;20029;-88
2021/10/18 11:13:39;;;;;;;51.47;30.77;;;;;;;;;;5015559;28;20084;-88
2021/10/18 11:18:23;;;;;;;61.58;33.65;;;;;;;;;;5131874;27;20924;-89
2021/10/18 11:20:48;;;;;;;58.85;30.17;;;;;;;;;;5121301;28;20129;-89
2021/10/18 11:23:13;;;;;;;49.20;28.65;;;;;;;;;;5128602;28;20110;-89
2021/10/18 11:25:39;;;;;;;56.58;29.98;;;;;;;;;;5130009;28;20015;-89
2021/10/18 11:28:06;;;;;;;46.80;28.90;;;;;;;;;;5130754;28;20863;-89
2021/10/18 11:30:33;;;;;;;55.40;29.50;;;;;;;;;;5131904;27;20022;-89
2021/10/18 11:33:02;;;;;;;47.58;25.23;;;;;;;;;;5133642;28;20028;-89
2021/10/18 11:35:29;;;;;;;40.22;25.60;;;;;;;;;;5127702;28;20023;-89
2021/10/18 11:37:59;;;;;;;39.30;24.00;;;;;;;;;;5131548;27;20039;-89
2021/10/18 11:40:26;;;;;;;53.65;24.25;;;;;;;;;;5130165;28;20027;-89
2021/10/18 11:42:54;;;;;;;42.90;25.70;;;;;;;;;;5130253;28;20811;-87
2021/10/18 11:45:20;;;;;;;38.40;24.50;;;;;;;;;;5129239;27;20027;-87
2021/10/18 11:47:46;;;;;;;49.20;24.10;;;;;;;;;;5131024;28;20051;-88
2021/10/18 11:50:17;;;;;;;35.22;22.80;;;;;;;;;;5114425;27;20012;-87
2021/10/18 11:52:47;;;;;;;49.45;25.88;;;;;;;;;;5110676;28;20016;-87
2021/10/18 11:55:14;;;;;;;53.60;27.38;;;;;;;;;;5109702;28;20027;-87
2021/10/18 11:57:41;;;;;;;38.47;23.02;;;;;;;;;;5116634;28;20035;-87
2021/10/18 12:00:08;;;;;;;37.50;21.90;;;;;;;;;;5131015;27;20794;-87
2021/10/18 12:02:39;;;;;;;35.63;21.23;;;;;;;;;;5130148;28;20019;-87
2021/10/18 12:05:05;;;;;;;;;;;;;;;;;;5136069;27;20061;-87
2021/10/18 12:07:40;;;;;;;33.20;20.05;;;;;;;;;;5129888;28;19908;-87
2021/10/18 12:10:20;;;;;;;35.53;21.30;;;;;;;;;;5129391;28;20128;-88
2021/10/18 12:13:04;;;;;;;37.55;18.98;;;;;;;;;;5129089;28;20027;-87
2021/10/18 12:15:30;;;;;;;35.75;18.45;;;;;;;;;;5129404;28;20784;-87
2021/10/18 12:17:56;;;;;;;43.65;22.52;;;;;;;;;;5129633;28;20051;-87
2021/10/18 12:20:22;;;;;;;32.50;18.17;;;;;;;;;;5128059;28;20130;-87
2021/10/18 12:23:05;;;;;;;34.03;17.27;;;;;;;;;;5130061;28;20018;-87
2021/10/18 12:25:31;;;;;;;29.83;17.88;;;;;;;;;;5130289;28;20019;-88
2021/10/18 12:27:57;;;;;;;33.67;19.35;;;;;;;;;;5108930;28;20099;-88
2021/10/18 12:30:36;;;;;;;36.03;18.88;;;;;;;;;;5096446;28;20086;-88
2021/10/18 12:33:07;;;;;;;35.63;18.58;;;;;;;;;;5094373;28;20110;-88
2021/10/18 12:35:33;;;;;;;;;;;;;;;;;;5093727;28;20020;-88
2021/10/18 12:37:58;;;;;;;24.83;17.02;;;;;;;;;;5094681;28;19919;-87
2021/10/18 12:40:23;;;;;;;33.20;18.77;;;;;;;;;;5094908;28;20043;-88
2021/10/18 12:42:48;;;;;;;32.33;17.70;;;;;;;;;;5094423;28;20024;-88
2021/10/18 12:45:15;;;;;;;33.97;18.75;;;;;;;;;;5092046;28;20035;-88
2021/10/18 12:47:41;;;;;;;35.30;19.25;;;;;;;;;;5094587;28;20016;-88
2021/10/18 12:50:15;;;;;;;31.48;17.45;;;;;;;;;;5094964;28;20020;-87
2021/10/18 12:52:45;;;;;;;31.27;18.30;;;;;;;;;;5116277;28;20012;-87
2021/10/18 12:55:17;;;;;;;35.67;18.73;;;;;;;;;;5114931;28;20055;-87
2021/10/18 12:57:46;;;;;;;28.63;16.92;;;;;;;;;;5114812;28;20126;-87
2021/10/18 13:00:12;;;;;;;38.30;20.75;;;;;;;;;;5114494;28;20019;-87
2021/10/18 13:02:38;;;;;;;31.20;17.98;;;;;;;;;;5114351;28;20110;-88
2021/10/18 13:05:09;;;;;;;29.67;17.88;;;;;;;;;;5113611;28;20594;-87
2021/10/18 13:07:36;;;;;;;33.25;17.60;;;;;;;;;;5114685;28;20906;-87
2021/10/18 13:10:01;;;;;;;32.05;16.80;;;;;;;;;;5114351;27;20030;-88
2021/10/18 13:12:27;;;;;;;31.67;15.93;;;;;;;;;;5109370;28;20091;-87
2021/10/18 13:14:53;;;;;;;29.65;16.42;;;;;;;;;;5099152;28;20020;-88
2021/10/18 13:17:19;;;;;;;34.65;17.70;;;;;;;;;;5095045;28;20143;-88
2021/10/18 13:19:44;;;;;;;30.38;18.77;;;;;;;;;;5108483;28;20847;-88
2021/10/18 13:22:09;;;;;;;28.90;18.30;;;;;;;;;;5114496;28;20064;-88
2021/10/18 13:24:34;;;;;;;30.23;17.67;;;;;;;;;;5113745;28;20091;-88
2021/10/18 13:27:01;;;;;;;27.92;18.92;;;;;;;;;;5106078;28;20477;-88
2021/10/18 13:29:26;;;;;;;32.35;18.60;;;;;;;;;;5104806;28;20585;-88
2021/10/18 13:31:52;;;;;;;27.67;18.67;;;;;;;;;;5115430;28;20020;-88
2021/10/18 13:34:17;;;;;;;26.55;17.38;;;;;;;;;;5112918;28;20261;-88
2021/10/18 13:36:42;;;;;;;28.43;17.03;;;;;;;;;;5112680;28;20081;-88
2021/10/18 13:39:07;;;;;;;29.45;16.70;;;;;;;;;;5115460;28;20019;-88
2021/10/18 13:41:33;;;;;;;34.23;16.97;;;;;;;;;;5100654;28;20044;-88
2021/10/18 13:43:58;;;;;;;30.88;19.92;;;;;;;;;;5093534;28;20345;-88
2021/10/18 13:46:23;;;;;;;32.40;17.92;;;;;;;;;;5113135;28;20054;-88
2021/10/18 13:48:48;;;;;;;28.67;16.87;;;;;;;;;;5105414;28;20012;-88
2021/10/18 13:51:14;;;;;;;25.57;15.63;;;;;;;;;;5102958;28;20023;-88
2021/10/18 13:53:39;;;;;;;24.30;15.88;;;;;;;;;;5114916;27;20046;-88
2021/10/18 13:56:05;;;;;;;26.70;14.83;;;;;;;;;;5113614;28;20122;-88
2021/10/18 13:58:31;;;;;;;21.88;15.10;;;;;;;;;;5113195;28;20340;-88
2021/10/18 14:00:56;;;;;;;29.35;15.63;;;;;;;;;;5113303;28;20039;-88
2021/10/18 14:03:21;;;;;;;24.35;14.20;;;;;;;;;;5114934;28;20019;-88
2021/10/18 14:05:46;;;;;;;21.13;14.87;;;;;;;;;;5116731;28;20084;-88
2021/10/18 14:08:11;;;;;;;21.93;14.13;;;;;;;;;;5096607;28;20035;-88
2021/10/18 14:10:37;;;;;;;23.95;15.50;;;;;;;;;;5092922;28;20376;-88
2021/10/18 14:13:02;;;;;;;18.88;13.70;;;;;;;;;;5091556;28;20391;-88
2021/10/18 14:15:28;;;;;;;23.05;13.88;;;;;;;;;;5092319;28;20100;-88
2021/10/18 14:17:53;;;;;;;20.70;13.17;;;;;;;;;;5109624;28;20475;-88
2021/10/18 14:20:18;;;;;;;25.83;14.20;;;;;;;;;;5114531;28;20379;-88
2021/10/18 14:22:43;;;;;;;21.08;14.80;;;;;;;;;;5112958;28;20269;-88
2021/10/18 14:25:09;;;;;;;24.87;14.57;;;;;;;;;;5112721;28;20023;-88
2021/10/18 14:27:35;;;;;;;21.60;14.40;;;;;;;;;;5113393;28;20020;-88
2021/10/18 14:30:01;;;;;;;22.30;14.55;;;;;;;;;;5114439;28;20016;-88
2021/10/18 14:32:26;;;;;;;24.52;14.52;;;;;;;;;;5113101;28;20026;-88
2021/10/18 14:34:51;;;;;;;22.43;15.17;;;;;;;;;;5113083;28;20023;-88
2021/10/18 14:37:16;;;;;;;21.33;13.17;;;;;;;;;;5112441;28;20055;-88
2021/10/18 14:39:42;;;;;;;19.88;12.95;;;;;;;;;;5098455;28;20043;-88
2021/10/18 14:42:07;;;;;;;18.33;12.20;;;;;;;;;;5113364;28;20023;-88
2021/10/18 14:44:33;;;;;;;18.90;13.35;;;;;;;;;;5113804;28;20024;-88
2021/10/18 14:46:59;;;;;;;20.73;12.60;;;;;;;;;;5110955;28;20356;-88
2021/10/18 14:49:24;;;;;;;21.60;13.30;;;;;;;;;;5112762;28;20027;-88
2021/10/18 14:51:49;;;;;;;22.55;14.38;;;;;;;;;;5112674;28;20249;-88
2021/10/18 14:54:15;;;;;;;23.47;13.27;;;;;;;;;;5112728;28;20020;-88
2021/10/18 14:56:41;;;;;;;22.45;13.07;;;;;;;;;;5112501;28;20380;-88
2021/10/18 14:59:06;;;;;;;21.67;14.05;;;;;;;;;;5113821;28;20042;-88
2021/10/18 15:01:32;;;;;;;18.23;14.20;;;;;;;;;;5110338;28;20814;-88
2021/10/18 15:03:57;;;;;;;20.15;14.68;;;;;;;;;;5096158;28;20012;-88
2021/10/18 15:06:24;;;;;;;19.77;14.32;;;;;;;;;;5093182;28;20486;-88
2021/10/18 15:08:50;;;;;;;30.98;15.25;;;;;;;;;;5090856;28;20027;-88
2021/10/18 15:11:15;;;;;;;22.55;15.52;;;;;;;;;;5090118;28;20673;-88
2021/10/18 15:13:43;;;;;;;21.40;16.13;;;;;;;;;;5092020;28;20055;-88
2021/10/18 15:16:08;;;;;;;21.60;14.77;;;;;;;;;;5093960;28;20032;-88
2021/10/18 15:18:33;;;;;;;23.42;15.60;;;;;;;;;;5113943;28;20069;-88
2021/10/18 15:20:58;;;;;;;30.95;15.57;;;;;;;;;;5112656;28;20024;-88
2021/10/18 15:23:24;;;;;;;24.53;15.70;;;;;;;;;;5111028;28;20027;-88
2021/10/18 15:25:49;;;;;;;30.88;18.48;;;;;;;;;;5112476;28;20277;-88